PILOTS ONLINE: 223    ATC ONLINE: 30

KGEU - Glendale Municipal Airport

Location

City Glendale
Country  United States
Latitude 33° 31' 36" N
Longitude 112° 17' 41" W
Elevation 1071 ft
Type Small Airport

Runways

01/19 7099 ft / 100 ft

Weather

METAR
2014/07/25 02:47
KGEU 250247Z 20012KT 20SM FEW150 SCT250 41/14 A2974 RMK LAST
TAF
No TAF available

Outbound flights

Inbound flights